KDTW

Detroit Metropolitan Wayne County Airport

Detroit, Michigan, USA
METAR KDTW 260253Z 24010KT 10SM CLR 03/M03 A3005 RMK AO2 SLP180 T00331028 51017 $
Observed Flight Rules
Feb-26 @ 02:53 UTC (39 minutes ago) Visual Flight Rules
Wind Visibility Clouds
240° at 10 knots 10 miles
  • Clear skies
Temperatures Readings
Current 3°C / 37°F
Dewpoint -3°C / 27°F
Humidity 65%
Altimeter 30.05" Hg
Pressure 1018 hPa
Elevation 195
METAR KDTW 260253Z 24010KT 10SM CLR 03/M03 A3005 RMK AO2 SLP180 T00331028 51017 $
Observed Flight Rules
Feb-26 @ 02:53 UTC
(39 minutes ago)
VFR
Wind Visibility
240° at 10 knots 10 miles
Clouds
  • Clear skies
Temperature Dewpoint
3°C / 37°F -3°C / 27°F
Humidity Altimeter Pressure
65% 30.05" Hg 1018 hPa